WETTERDATEN

GESTERN
Time Temp. Taup. r.Fe. Druck
00:01 16.8 12.6 76 1032.1
00:11 16.8 12.6 76 1032
00:21 16.7 12.5 76 1031.9
00:31 16.7 12.5 76 1031.9
00:46 16.7 12.3 75 1031.8
00:57 16.6 12.2 75 1031.8
01:11 16.6 12.2 75 1031.7
01:27 16.6 12.2 75 1031.6
01:42 16.5 11.9 74 1031.5
02:02 16.5 11.9 74 1031.4
02:17 16.4 11.8 74 1031.4
02:27 16.4 11.8 74 1031.4
02:38 16.4 11.8 74 1031.4
02:48 16.4 11.8 74 1031.3
02:57 16.4 12 75 1031.2
03:08 16.4 11.8 74 1031.2
03:23 16.3 11.9 75 1031.1
03:33 16.3 11.9 75 1031.1
03:43 16.3 11.9 75 1031.2
03:53 16.3 12.1 76 1031.1
04:03 16.3 11.9 75 1031.2
04:13 16.3 12.1 76 1031.2
04:23 16.3 12.1 76 1031.2
04:34 16.3 12.1 76 1031.2
04:59 16.3 12.1 76 1031.1
05:09 16.3 12.1 76 1031.1
05:19 16.3 12.1 76 1031.1
05:34 16.3 12.3 77 1031
05:45 16.3 12.3 77 1031
05:54 16.3 12.3 77 1031
06:04 16.2 12.2 77 1031
06:14 16.2 12.2 77 1031
06:25 16.2 12.2 77 1031
06:36 16.2 12.2 77 1031.2
06:45 16.2 12.2 77 1031.3
06:55 16.2 12.2 77 1031.4
07:20 16.1 12.1 77 1031.7
07:30 16.1 12.1 77 1031.9
07:45 16.1 11.9 76 1032
07:55 16.1 11.9 76 1032.2
08:06 16.1 12.1 77 1032.3
08:16 16.1 12.1 77 1032.3
08:27 16.1 12.1 77 1032.4
08:36 16.1 12.3 78 1032.6
08:46 16.1 12.1 77 1032.7
08:56 16.1 12.1 77 1032.7
09:06 16.2 12.4 78 1032.8
09:16 16.2 12.4 78 1032.7
09:27 16.3 12.7 79 1032.9
09:37 16.3 12.7 79 1033
09:52 16.4 12.8 79 1033.1
10:33 16.5 13.2 81 1033.3
10:47 16.6 13.3 81 1033.4
10:57 16.6 13.5 82 1033.4
11:22 16.8 13.9 83 1033.5
11:42 16.9 14.2 84 1033.4
11:52 16.9 14.2 84 1033.3
14:49 17.5 14.4 82 1031.2
15:10 17.8 14.7 82 1031
15:39 18.1 14.8 81 1031
15:56 18.3 15.2 82 1030.9
16:05 18.3 15.2 82 1030.9
16:20 18.3 15 81 1030.8
16:31 18.2 14.9 81 1030.9
16:40 18.1 14.8 81 1030.8
16:50 18 14.7 81 1030.7
17:01 17.9 14.6 81 1030.6
17:21 17.8 14.7 82 1030.5
17:41 17.7 14.8 83 1030.5
18:01 17.6 14.7 83 1030.4
18:12 17.7 14.8 83 1030.4
18:22 17.7 14.6 82 1030.4
18:32 17.7 14.6 82 1030.4
18:41 17.6 14.5 82 1030.6
18:52 17.5 14.4 82 1030.7
19:02 17.5 14.2 81 1030.8
19:12 17.4 14.3 82 1030.8
19:22 17.4 14.3 82 1030.9
19:37 17.2 14.1 82 1031.1
19:47 17.2 13.9 81 1031.2
19:58 17.1 13.8 81 1031.4
20:13 17.1 13.4 79 1031.5
20:23 17 13.1 78 1031.5
20:32 17.1 13.2 78 1031.6
20:43 17 12.9 77 1031.7
20:53 17 12.9 77 1031.6
21:03 16.9 12.6 76 1031.7
21:13 16.9 12.6 76 1031.6
21:24 16.9 12.4 75 1031.6
21:34 16.8 12.3 75 1031.6
21:43 16.8 12.1 74 1031.7
21:53 16.7 12 74 1031.6
22:04 16.7 12 74 1031.6
22:29 16.6 12 74 1031.7
22:39 16.6 12 74 1031.7
22:49 16.5 11.6 73 1031.7
23:00 16.5 11.6 73 1031.8
23:10 16.5 11.6 73 1031.9
23:29 16.4 11.6 73 1031.9
23:50 16.4 11.6 73 1031.8

TAGESSTATISTIK

2020-01-18
TEMPERATUR
MITTEL
16.8
MAXIMUM
18.3
15:56
MINIMUM
16.1
07:20
LUFTDRUCK
MITTEL
1031.6
MAXIMUM
1033.5
11:22
MINIMUM
1030.4
18:01
TAUPUNKT
MITTEL
12.9
MAXIMUM
15.2
15:56
MINIMUM
11.6
22:49
FEUCHTIGKEIT
MITTEL
78
MAXIMUM
84
11:42
MINIMUM
73
22:49
TEMPERATUR (°C)
MINIMUM
16.1
MAXIMUM
18.3
MITTEL
16.8
LUFTDRUCK (hpa)
MINIMUM
1030.4
MAXIMUM
1033.5
MITTEL
1031.6
MESSGERÄT